Aviation Digital Data Service (ADDS)

Output produced by METARs form (1728 UTC 24 August 2019)
found at http://www.aviationweather.gov/metar/data/
 
Forecast for: ZHHH (WUHAN/NANHU , CN)
Text: TAF ZHHH 241505Z 2418/2518 05004MPS 6000 NSC TX36/2507Z TN26/2422Z
Forecast period: 1800 UTC 24 August 2019 to 1800 UTC 25 August 2019
Forecast type: FROM: standard forecast or significant change
Winds: from the NE (50 degrees) at 9 MPH (8 knots; 4.1 m/s)
Visibility: 4 miles (6 km)
Ceiling: unknown
Clouds: missing
Weather: no significant weather forecast for this period